Time;durP1;ratioP1;P1;durP2;ratioP2;P2;SDS_P1;SDS_P2;PMS_P1;PMS_P2;Temp;Humidity;BMP_temperature;BMP_pressure;BME280_temperature;BME280_humidity;BME280_pressure;Samples;Min_cycle;Max_cycle;Signal;HPM_P1;HPM_P2
2022/06/04 00:02:02;;;;;;;;;;;;;;;18.38;82.48;95685.47;5116772;28;1906;-48
2022/06/04 00:04:28;;;;;;;;;;;;;;;18.57;81.54;95675.81;5116443;28;1032;-48
2022/06/04 00:06:54;;;;;;;;;;;;;;;18.62;81.69;95675.22;5099694;28;1215;-48
2022/06/04 00:09:22;;;;;;;;;;;;;;;18.63;81.27;95669.63;5096050;28;1000;-48
2022/06/04 00:17:25;;;;;;;;;;;;;;;18.43;82.78;95666.75;5079656;28;1053;-48
2022/06/04 00:19:51;;;;;;;;;;;;;;;18.29;83.12;95663.13;5095995;28;1031;-47
2022/06/04 00:22:18;;;;;;;;;;;;;;;18.51;82.47;95666.59;5095841;28;1898;-48
2022/06/04 00:24:44;;;;;;;;;;;;;;;18.57;82.21;95669.56;5095588;28;977;-48
2022/06/04 00:27:28;;;;;;;;;;;;;;;18.42;82.58;95665.09;5095899;28;1020;-48
2022/06/04 00:29:54;;;;;;;;;;;;;;;18.50;82.57;95664.13;5095521;28;1024;-48
2022/06/04 00:32:20;;;;;;;;;;;;;;;18.51;82.19;95668.47;5095868;28;1008;-48
2022/06/04 00:34:46;;;;;;;;;;;;;;;18.41;82.37;95663.41;5095881;28;1040;-48
2022/06/04 00:37:12;;;;;;;;;;;;;;;18.25;82.06;95659.16;5095572;28;1040;-48
2022/06/04 00:39:39;;;;;;;;;;;;;;;17.94;83.24;95657.63;5095585;28;979;-48
2022/06/04 00:42:13;;;;;;;;;;;;;;;17.80;84.46;95657.69;5095199;28;1909;-47
2022/06/04 00:44:41;;;;;;;;;;;;;;;18.03;83.28;95647.50;5095181;28;1974;-48
2022/06/04 00:47:07;;;;;;;;;;;;;;;18.16;82.55;95651.38;5095224;28;1078;-48
2022/06/04 00:49:34;;;;;;;;;;;;;;;18.11;82.64;95647.34;5095186;28;1026;-48
2022/06/04 00:52:01;;;;;;;;;;;;;;;18.06;82.93;95644.44;5095312;28;983;-48
2022/06/04 00:54:27;;;;;;;;;;;;;;;18.01;83.50;95641.47;5095052;28;1031;-48
2022/06/04 00:56:53;;;;;;;;;;;;;;;17.94;83.96;95637.84;5094956;28;1020;-48
2022/06/04 00:59:38;;;;;;;;;;;;;;;18.09;83.06;95629.66;5095062;28;1083;-48
2022/06/04 01:02:22;;;;;;;;;;;;;;;18.16;82.91;95635.97;5094748;28;1913;-48
2022/06/04 01:04:48;;;;;;;;;;;;;;;18.21;83.09;95629.94;5095139;28;977;-48
2022/06/04 01:07:14;;;;;;;;;;;;;;;18.24;83.47;95637.69;5114768;28;1176;-48
2022/06/04 01:09:47;;;;;;;;;;;;;;;18.25;83.16;95633.94;5115245;28;996;-48
2022/06/04 01:12:13;;;;;;;;;;;;;;;18.20;82.07;95637.25;5115129;28;1060;-48
2022/06/04 01:14:39;;;;;;;;;;;;;;;17.93;83.16;95631.63;5114999;28;1040;-48
2022/06/04 01:17:15;;;;;;;;;;;;;;;17.95;83.26;95628.72;5114909;28;1020;-48
2022/06/04 01:19:52;;;;;;;;;;;;;;;17.93;82.53;95631.63;5115059;28;1111;-47
2022/06/04 01:22:42;;;;;;;;;;;;;;;17.65;83.53;95628.84;5114764;28;1910;-47
2022/06/04 01:25:20;;;;;;;;;;;;;;;17.54;84.46;95629.34;5113929;28;1102;-47
2022/06/04 01:27:46;;;;;;;;;;;;;;;17.62;84.00;95623.81;5114915;28;1094;-48
2022/06/04 01:30:18;;;;;;;;;;;;;;;17.76;83.90;95631.03;5115081;28;1051;-47
2022/06/04 01:32:59;;;;;;;;;;;;;;;17.74;83.87;95630.38;5114744;28;1053;-47
2022/06/04 01:35:43;;;;;;;;;;;;;;;17.77;83.51;95637.25;5115051;28;1056;-48
2022/06/04 01:38:20;;;;;;;;;;;;;;;17.85;83.07;95636.31;5114618;28;1106;-47
2022/06/04 01:41:19;;;;;;;;;;;;;;;17.76;82.94;95638.31;5115224;28;1902;-47
2022/06/04 01:43:51;;;;;;;;;;;;;;;17.74;82.84;95643.91;5069638;28;1313;-49
2022/06/04 01:46:20;;;;;;;;;;;;;;;17.73;83.03;95647.63;5114737;28;956;-47
2022/06/04 01:48:48;;;;;;;;;;;;;;;17.73;82.17;95650.31;5114734;27;1064;-47
2022/06/04 01:51:20;;;;;;;;;;;;;;;17.32;83.08;95656.38;5114293;28;1233;-47
2022/06/04 01:53:47;;;;;;;;;;;;;;;16.95;85.42;95655.50;5114399;28;1031;-47
2022/06/04 01:56:19;;;;;;;;;;;;;;;16.83;86.43;95657.00;5114248;28;1357;-48
2022/06/04 01:58:51;;;;;;;;;;;;;;;17.05;85.50;95655.19;5114543;28;1055;-47
2022/06/04 02:01:20;;;;;;;;;;;;;;;17.20;85.09;95657.03;5114363;28;1909;-47
2022/06/04 02:03:57;;;;;;;;;;;;;;;17.39;84.40;95655.59;5114302;28;1035;-47
2022/06/04 02:06:26;;;;;;;;;;;;;;;17.52;84.01;95658.44;5101433;28;1119;-47
2022/06/04 02:08:58;;;;;;;;;;;;;;;17.70;83.72;95649.88;5094053;28;968;-47
2022/06/04 02:11:25;;;;;;;;;;;;;;;17.61;83.10;95662.69;5093833;28;1043;-47
2022/06/04 02:13:53;;;;;;;;;;;;;;;17.55;82.76;95660.78;5093953;28;987;-47
2022/06/04 02:16:28;;;;;;;;;;;;;;;17.47;83.02;95663.56;5093845;28;988;-47
2022/06/04 02:18:55;;;;;;;;;;;;;;;17.51;83.10;95670.28;5093784;28;1031;-47
2022/06/04 02:21:22;;;;;;;;;;;;;;;17.41;83.19;95675.16;5093550;28;1918;-47
2022/06/04 02:23:49;;;;;;;;;;;;;;;17.18;84.06;95676.97;5093115;28;1850;-47
2022/06/04 02:26:18;;;;;;;;;;;;;;;17.03;84.89;95683.44;5093613;28;1024;-47
2022/06/04 02:28:45;;;;;;;;;;;;;;;17.06;85.12;95683.91;5093575;28;1021;-48
2022/06/04 02:31:11;;;;;;;;;;;;;;;17.13;84.49;95684.84;5093512;28;1092;-47
2022/06/04 02:33:56;;;;;;;;;;;;;;;17.25;84.33;95685.16;5093220;28;1044;-47
2022/06/04 02:36:55;;;;;;;;;;;;;;;17.22;84.26;95688.25;5093158;28;1040;-47
2022/06/04 02:39:41;;;;;;;;;;;;;;;17.09;84.77;95674.56;5060289;28;1424;-47
2022/06/04 02:42:20;;;;;;;;;;;;;;;17.09;85.34;95669.16;5082495;28;1922;-47
2022/06/04 02:44:46;;;;;;;;;;;;;;;17.25;84.68;95663.56;5093261;28;1100;-47
2022/06/04 02:47:20;;;;;;;;;;;;;;;17.22;84.65;95663.09;5093125;28;1033;-48
2022/06/04 02:49:46;;;;;;;;;;;;;;;17.17;84.98;95659.09;5093429;28;1035;-48
2022/06/04 02:52:13;;;;;;;;;;;;;;;17.30;84.86;95663.84;5093329;28;1039;-47
2022/06/04 02:54:50;;;;;;;;;;;;;;;17.49;84.33;95664.22;5093327;28;960;-47
2022/06/04 02:57:17;;;;;;;;;;;;;;;17.52;84.06;95661.97;5093036;28;1929;-48
2022/06/04 02:59:45;;;;;;;;;;;;;;;17.65;84.04;95658.56;5093169;28;1028;-48
2022/06/04 03:02:13;;;;;;;;;;;;;;;17.60;84.59;95662.88;5093053;28;1993;-48
2022/06/04 03:04:40;;;;;;;;;;;;;;;17.50;84.18;95655.94;5093173;28;1015;-48
2022/06/04 03:07:06;;;;;;;;;;;;;;;17.23;84.29;95652.09;5111608;28;1216;-47
2022/06/04 03:09:33;;;;;;;;;;;;;;;17.24;84.65;95642.94;5113269;28;1099;-47
2022/06/04 03:11:59;;;;;;;;;;;;;;;17.30;84.47;95636.81;5113445;28;992;-47
2022/06/04 03:14:25;;;;;;;;;;;;;;;17.24;84.39;95632.13;5113456;28;1226;-51
2022/06/04 03:16:51;;;;;;;;;;;;;;;17.12;85.16;95631.81;5113490;28;1027;-47
2022/06/04 03:19:17;;;;;;;;;;;;;;;17.00;85.95;95630.63;5113253;28;1107;-47
2022/06/04 03:21:43;;;;;;;;;;;;;;;17.26;85.43;95637.38;5113247;28;1938;-48
2022/06/04 03:24:11;;;;;;;;;;;;;;;17.48;84.88;95638.22;5113051;28;945;-47
2022/06/04 03:26:37;;;;;;;;;;;;;;;17.48;84.98;95643.63;5113528;28;1056;-48
2022/06/04 03:29:03;;;;;;;;;;;;;;;17.31;83.11;95643.03;5113354;28;965;-48
2022/06/04 03:31:29;;;;;;;;;;;;;;;17.22;83.81;95644.19;5113392;28;1052;-47
2022/06/04 03:33:56;;;;;;;;;;;;;;;17.36;84.96;95652.25;5113267;28;977;-47
2022/06/04 03:36:22;;;;;;;;;;;;;;;17.56;83.78;95647.03;5113410;28;953;-48
2022/06/04 03:38:48;;;;;;;;;;;;;;;17.61;83.71;95660.00;5113045;28;1070;-47
2022/06/04 03:41:15;;;;;;;;;;;;;;;17.49;82.83;95666.91;5113095;28;1913;-48
2022/06/04 03:43:41;;;;;;;;;;;;;;;17.53;83.47;95662.84;5112884;28;1238;-49
2022/06/04 03:46:07;;;;;;;;;;;;;;;17.60;83.65;95661.00;5113365;28;944;-48
2022/06/04 03:48:34;;;;;;;;;;;;;;;17.66;84.33;95668.38;5114446;28;991;-48
2022/06/04 03:51:01;;;;;;;;;;;;;;;18.00;83.41;95660.59;5116886;28;1007;-47
2022/06/04 03:53:27;;;;;;;;;;;;;;;18.24;83.31;95660.16;5116393;28;969;-48
2022/06/04 03:55:53;;;;;;;;;;;;;;;18.23;83.20;95668.47;5116988;28;1011;-48
2022/06/04 03:58:19;;;;;;;;;;;;;;;18.17;83.65;95675.50;5116950;28;961;-48
2022/06/04 04:00:45;;;;;;;;;;;;;;;18.26;84.39;95668.09;5116793;28;1902;-48
2022/06/04 04:03:13;;;;;;;;;;;;;;;18.41;84.63;95686.94;5116730;28;1008;-48
2022/06/04 04:05:49;;;;;;;;;;;;;;;18.46;84.64;95690.75;5110017;28;1219;-48
2022/06/04 04:08:16;;;;;;;;;;;;;;;18.54;84.46;95681.63;5096391;28;984;-48
2022/06/04 04:10:43;;;;;;;;;;;;;;;18.69;84.05;95682.34;5096139;28;957;-48
2022/06/04 04:13:09;;;;;;;;;;;;;;;18.88;84.29;95694.38;5096362;28;960;-48
2022/06/04 04:15:36;;;;;;;;;;;;;;;19.00;83.67;95701.94;5095809;28;1016;-48
2022/06/04 04:18:02;;;;;;;;;;;;;;;19.06;83.32;95701.13;5095971;28;1075;-48
2022/06/04 04:20:29;;;;;;;;;;;;;;;19.25;82.08;95705.81;5096133;28;1997;-48
2022/06/04 04:22:56;;;;;;;;;;;;;;;19.37;81.20;95708.78;5096228;28;988;-48
2022/06/04 04:25:24;;;;;;;;;;;;;;;19.60;80.85;95704.91;5095579;28;964;-48
2022/06/04 04:27:50;;;;;;;;;;;;;;;19.65;81.28;95710.53;5095716;28;1032;-48
2022/06/04 04:30:18;;;;;;;;;;;;;;;19.78;80.50;95710.63;5095678;28;1019;-47
2022/06/04 04:32:45;;;;;;;;;;;;;;;19.78;80.85;95720.63;5095883;28;1060;-48
2022/06/04 04:35:15;;;;;;;;;;;;;;;19.69;81.22;95723.50;5095396;28;1083;-48
2022/06/04 04:37:42;;;;;;;;;;;;;;;19.64;80.64;95711.59;5095596;28;1095;-48
2022/06/04 04:40:09;;;;;;;;;;;;;;;19.74;79.51;95719.38;5095359;28;1040;-48
2022/06/04 04:42:35;;;;;;;;;;;;;;;19.82;79.20;95716.47;5095597;28;1973;-48
2022/06/04 04:45:02;;;;;;;;;;;;;;;19.82;79.80;95722.72;5095175;28;1080;-48
2022/06/04 04:47:28;;;;;;;;;;;;;;;19.78;79.69;95721.47;5095293;28;1020;-48
2022/06/04 04:49:54;;;;;;;;;;;;;;;19.80;80.35;95715.84;5095228;28;1087;-48
2022/06/04 04:52:20;;;;;;;;;;;;;;;19.73;81.83;95717.69;5095385;28;1072;-48
2022/06/04 04:54:46;;;;;;;;;;;;;;;19.48;82.37;95712.78;5095017;28;1094;-49
2022/06/04 04:57:12;;;;;;;;;;;;;;;19.51;82.04;95698.81;5095426;28;957;-48
2022/06/04 04:59:38;;;;;;;;;;;;;;;19.51;82.21;95707.78;5094898;28;1071;-48
2022/06/04 05:02:04;;;;;;;;;;;;;;;19.63;82.63;95707.19;5095295;28;1910;-48
2022/06/04 05:04:30;;;;;;;;;;;;;;;19.64;81.86;95708.88;5094843;28;981;-48
2022/06/04 05:06:56;;;;;;;;;;;;;;;19.73;82.41;95707.69;5111855;28;1911;-48
2022/06/04 05:09:22;;;;;;;;;;;;;;;20.00;82.37;95713.19;5115517;28;1011;-48
2022/06/04 05:11:48;;;;;;;;;;;;;;;20.19;81.63;95708.81;5115370;28;1051;-47
2022/06/04 05:14:14;;;;;;;;;;;;;;;20.35;80.08;95710.28;5115379;28;965;-47
2022/06/04 05:16:40;;;;;;;;;;;;;;;20.59;80.69;95722.41;5114936;28;1871;-48
2022/06/04 05:19:06;;;;;;;;;;;;;;;20.81;80.09;95726.59;5115126;27;1035;-48
2022/06/04 05:21:35;;;;;;;;;;;;;;;20.73;79.04;95724.06;5114899;28;1906;-47
2022/06/04 05:24:01;;;;;;;;;;;;;;;21.00;77.56;95735.75;5115028;28;984;-49
2022/06/04 05:26:27;;;;;;;;;;;;;;;20.74;78.27;95728.47;5114716;28;929;-48
2022/06/04 05:28:53;;;;;;;;;;;;;;;21.01;78.38;95723.00;5114947;28;1973;-48
2022/06/04 05:31:20;;;;;;;;;;;;;;;21.27;77.35;95730.25;5115024;28;1049;-49
2022/06/04 05:33:46;;;;;;;;;;;;;;;21.49;76.84;95738.97;5114753;28;1107;-48
2022/06/04 05:36:12;;;;;;;;;;;;;;;21.81;76.07;95741.78;5114752;28;999;-49
2022/06/04 05:38:39;;;;;;;;;;;;;;;22.16;76.00;95741.38;5114679;28;1028;-49
2022/06/04 05:41:07;;;;;;;;;;;;;;;22.58;74.40;95742.56;5114637;28;1905;-48
2022/06/04 05:43:34;;;;;;;;;;;;;;;22.79;74.31;95738.59;5114879;28;1045;-48
2022/06/04 05:46:01;;;;;;;;;;;;;;;22.92;73.07;95745.00;5114334;28;1218;-49
2022/06/04 05:48:27;;;;;;;;;;;;;;;22.62;73.48;95751.13;5114527;28;1004;-49
2022/06/04 05:50:53;;;;;;;;;;;;;;;22.54;74.59;95745.97;5114473;28;1044;-49
2022/06/04 05:53:19;;;;;;;;;;;;;;;22.76;73.19;95740.94;5114520;28;1074;-49
2022/06/04 05:55:45;;;;;;;;;;;;;;;22.84;72.28;95748.00;5114138;28;965;-49
2022/06/04 05:58:11;;;;;;;;;;;;;;;23.04;71.40;95745.97;5114378;28;1090;-49
2022/06/04 06:00:37;;;;;;;;;;;;;;;23.08;70.70;95749.06;5114334;28;1910;-49
2022/06/04 06:03:03;;;;;;;;;;;;;;;23.18;70.69;95743.94;5114308;28;1028;-49
2022/06/04 06:05:31;;;;;;;;;;;;;;;23.25;71.39;95746.59;5108870;28;1200;-49
2022/06/04 06:07:58;;;;;;;;;;;;;;;23.32;70.48;95736.47;5093824;28;1012;-48
2022/06/04 06:10:24;;;;;;;;;;;;;;;23.16;71.00;95729.69;5093878;28;969;-49
2022/06/04 06:12:50;;;;;;;;;;;;;;;23.22;72.40;95741.59;5093725;28;969;-48
2022/06/04 06:15:16;;;;;;;;;;;;;;;23.44;69.95;95731.06;5093661;28;1008;-48
2022/06/04 06:17:42;;;;;;;;;;;;;;;23.63;69.34;95729.16;5093421;28;1036;-48
2022/06/04 06:20:08;;;;;;;;;;;;;;;23.87;69.24;95719.22;5093810;28;1070;-48
2022/06/04 06:22:35;;;;;;;;;;;;;;;23.91;69.44;95715.78;5093301;28;1980;-47
2022/06/04 06:25:05;;;;;;;;;;;;;;;23.67;68.51;95717.53;5093675;28;973;-48
2022/06/04 06:27:31;;;;;;;;;;;;;;;23.48;70.39;95715.91;5093586;28;1047;-48
2022/06/04 06:29:57;;;;;;;;;;;;;;;23.31;69.10;95719.22;5093839;28;1055;-47
2022/06/04 06:32:26;;;;;;;;;;;;;;;22.94;70.66;95710.19;5093179;28;1103;-48
2022/06/04 06:34:52;;;;;;;;;;;;;;;22.83;71.16;95722.66;5093666;28;972;-47
2022/06/04 06:37:18;;;;;;;;;;;;;;;22.81;71.89;95719.31;5093443;28;1192;-47
2022/06/04 06:39:44;;;;;;;;;;;;;;;23.27;71.38;95717.19;5093331;28;1061;-48
2022/06/04 06:42:10;;;;;;;;;;;;;;;23.62;69.59;95716.56;5093206;28;1999;-47
2022/06/04 06:44:36;;;;;;;;;;;;;;;24.20;69.55;95715.19;5093464;28;1068;-47
2022/06/04 06:47:02;;;;;;;;;;;;;;;24.48;67.13;95706.34;5093093;28;1100;-48
2022/06/04 06:49:29;;;;;;;;;;;;;;;24.58;67.16;95695.69;5093421;28;1047;-48
2022/06/04 06:51:57;;;;;;;;;;;;;;;24.61;67.36;95692.47;5093336;28;1032;-48
2022/06/04 06:54:25;;;;;;;;;;;;;;;24.80;68.25;95689.66;5093272;28;1007;-48
2022/06/04 06:56:52;;;;;;;;;;;;;;;24.63;66.88;95690.34;5093367;28;1032;-48
2022/06/04 06:59:21;;;;;;;;;;;;;;;24.45;68.14;95695.88;5093339;28;1045;-48
2022/06/04 07:01:48;;;;;;;;;;;;;;;24.26;68.93;95686.91;5093234;28;1897;-47
2022/06/04 07:04:15;;;;;;;;;;;;;;;24.29;68.80;95681.81;5093421;28;1048;-48
2022/06/04 07:06:42;;;;;;;;;;;;;;;24.24;69.83;95695.34;5107762;28;1161;-48
2022/06/04 07:09:14;;;;;;;;;;;;;;;24.22;69.55;95689.28;5113693;28;1015;-48
2022/06/04 07:11:40;;;;;;;;;;;;;;;24.23;69.10;95692.88;5113210;28;1036;-48
2022/06/04 07:14:07;;;;;;;;;;;;;;;24.26;70.01;95689.66;5113449;28;1023;-48
2022/06/04 07:16:33;;;;;;;;;;;;;;;24.24;70.27;95687.16;5113188;28;1228;-47
2022/06/04 07:19:00;;;;;;;;;;;;;;;24.16;70.57;95688.31;5113321;28;917;-47
2022/06/04 07:21:26;;;;;;;;;;;;;;;24.19;70.47;95689.78;5113422;28;1910;-48
2022/06/04 07:23:53;;;;;;;;;;;;;;;24.25;71.15;95690.72;5115392;28;1028;-48
2022/06/04 07:26:19;;;;;;;;;;;;;;;24.09;71.75;95681.28;5117309;28;1050;-48
2022/06/04 07:28:46;;;;;;;;;;;;;;;23.89;71.91;95681.59;5117442;28;976;-48
2022/06/04 07:31:13;;;;;;;;;;;;;;;23.88;71.94;95669.81;5117211;28;1015;-48
2022/06/04 07:33:43;;;;;;;;;;;;;;;23.92;71.89;95670.19;5117129;28;1048;-48
2022/06/04 07:36:14;;;;;;;;;;;;;;;23.94;72.62;95666.19;5117506;27;982;-48
2022/06/04 07:38:40;;;;;;;;;;;;;;;23.72;72.26;95673.19;5117243;28;961;-47
2022/06/04 07:41:06;;;;;;;;;;;;;;;23.72;73.51;95654.91;5117345;28;2000;-47
2022/06/04 07:43:32;;;;;;;;;;;;;;;23.87;72.26;95659.97;5116678;28;1079;-48
2022/06/04 07:45:58;;;;;;;;;;;;;;;23.78;72.71;95659.47;5117353;28;1187;-48
2022/06/04 07:48:25;;;;;;;;;;;;;;;23.90;72.03;95656.78;5116772;28;1024;-48
2022/06/04 07:50:51;;;;;;;;;;;;;;;24.10;71.84;95661.94;5116877;28;1940;-47
2022/06/04 07:53:17;;;;;;;;;;;;;;;24.27;71.26;95653.91;5116977;28;1028;-47
2022/06/04 07:55:43;;;;;;;;;;;;;;;24.24;72.99;95661.72;5116584;28;1043;-51
2022/06/04 07:58:09;;;;;;;;;;;;;;;24.17;71.67;95653.66;5116813;28;957;-47
2022/06/04 08:00:37;;;;;;;;;;;;;;;24.17;71.75;95656.38;5116475;28;1997;-47
2022/06/04 08:03:04;;;;;;;;;;;;;;;24.33;71.62;95652.94;5116462;28;1019;-47
2022/06/04 08:05:30;;;;;;;;;;;;;;;24.39;70.76;95653.91;5111710;28;1165;-47
2022/06/04 08:07:56;;;;;;;;;;;;;;;24.34;71.58;95651.91;5096282;28;973;-47
2022/06/04 08:10:22;;;;;;;;;;;;;;;24.29;71.13;95665.44;5096288;28;1004;-48
2022/06/04 08:12:49;;;;;;;;;;;;;;;24.51;71.50;95663.00;5096185;28;1064;-48
2022/06/04 08:15:15;;;;;;;;;;;;;;;24.59;71.12;95659.09;5096317;28;1059;-48
2022/06/04 08:17:41;;;;;;;;;;;;;;;24.72;70.14;95658.84;5096034;28;1039;-48
2022/06/04 08:20:07;;;;;;;;;;;;;;;24.56;70.43;95665.00;5095961;28;1031;-48
2022/06/04 08:22:33;;;;;;;;;;;;;;;24.62;70.91;95655.03;5095561;28;1988;-48
2022/06/04 08:24:59;;;;;;;;;;;;;;;24.72;70.20;95652.56;5095721;28;1103;-48
2022/06/04 08:27:25;;;;;;;;;;;;;;;24.70;71.70;95650.06;5095552;28;1027;-47
2022/06/04 08:29:51;;;;;;;;;;;;;;;24.73;69.15;95651.47;5096033;28;953;-48
2022/06/04 08:32:18;;;;;;;;;;;;;;;24.84;69.66;95647.06;5095617;28;925;-48
2022/06/04 08:34:44;;;;;;;;;;;;;;;24.89;68.86;95642.56;5095094;28;1055;-48
2022/06/04 08:37:10;;;;;;;;;;;;;;;24.88;69.48;95640.88;5095570;28;1099;-48
2022/06/04 08:39:36;;;;;;;;;;;;;;;25.08;69.15;95634.19;5095620;28;1051;-48
2022/06/04 08:42:11;;;;;;;;;;;;;;;25.23;68.56;95630.97;5095514;28;1902;-47
2022/06/04 08:44:39;;;;;;;;;;;;;;;25.24;68.18;95633.47;5095254;28;1080;-47
2022/06/04 08:47:12;;;;;;;;;;;;;;;25.18;69.12;95633.59;5095443;28;1032;-48
2022/06/04 08:49:42;;;;;;;;;;;;;;;25.21;68.23;95631.22;5095263;28;1072;-47
2022/06/04 08:52:14;;;;;;;;;;;;;;;25.50;68.19;95620.31;5095393;28;1976;-48
2022/06/04 08:57:35;;;;;;;;;;;;;;;25.75;67.35;95621.88;5095461;28;1011;-47
2022/06/04 09:00:01;;;;;;;;;;;;;;;25.73;68.02;95613.91;5095238;28;1047;-48
2022/06/04 09:02:42;;;;;;;;;;;;;;;25.76;67.30;95612.59;5095032;28;1934;-48
2022/06/04 09:05:24;;;;;;;;;;;;;;;25.79;67.13;95615.66;5096714;28;1227;-48
2022/06/04 09:07:54;;;;;;;;;;;;;;;25.86;67.10;95621.00;5115441;28;1028;-48
2022/06/04 09:10:25;;;;;;;;;;;;;;;25.95;66.90;95624.19;5115224;28;1077;-48
2022/06/04 09:12:57;;;;;;;;;;;;;;;26.03;67.08;95621.06;5115630;28;1007;-48
2022/06/04 09:15:29;;;;;;;;;;;;;;;25.74;68.31;95620.22;5114983;28;1036;-48
2022/06/04 09:17:56;;;;;;;;;;;;;;;25.55;68.92;95611.38;5115175;28;1154;-48
2022/06/04 09:20:38;;;;;;;;;;;;;;;25.60;68.39;95615.03;5115148;28;1910;-48
2022/06/04 09:23:06;;;;;;;;;;;;;;;25.57;69.55;95615.50;5115087;28;1029;-48
2022/06/04 09:25:37;;;;;;;;;;;;;;;25.66;68.43;95630.47;5114661;28;1126;-49
2022/06/04 09:28:03;;;;;;;;;;;;;;;25.78;68.25;95621.38;5115036;28;1023;-48
2022/06/04 09:30:39;;;;;;;;;;;;;;;25.86;67.86;95618.25;5114551;28;1048;-48
2022/06/04 09:33:05;;;;;;;;;;;;;;;26.08;67.13;95615.66;5114819;28;1083;-49
2022/06/04 09:35:35;;;;;;;;;;;;;;;26.27;67.38;95619.84;5114733;28;940;-49
2022/06/04 09:38:02;;;;;;;;;;;;;;;26.17;66.01;95627.06;5115132;28;1028;-48
2022/06/04 09:40:30;;;;;;;;;;;;;;;26.18;66.39;95617.72;5114318;28;2036;-47
2022/06/04 09:43:09;;;;;;;;;;;;;;;26.44;66.85;95619.00;5114686;28;1048;-48
2022/06/04 09:45:35;;;;;;;;;;;;;;;26.51;64.10;95618.84;5113636;28;1211;-49
2022/06/04 09:48:01;;;;;;;;;;;;;;;27.00;63.13;95619.84;5114522;28;1986;-48
2022/06/04 09:50:27;;;;;;;;;;;;;;;26.95;63.41;95619.78;5114372;28;973;-49
2022/06/04 09:52:56;;;;;;;;;;;;;;;26.86;61.43;95613.06;5114588;28;1039;-49
2022/06/04 09:55:23;;;;;;;;;;;;;;;26.88;62.22;95617.22;5114177;28;1048;-49
2022/06/04 09:57:57;;;;;;;;;;;;;;;26.93;61.74;95610.16;5114726;28;1036;-49
2022/06/04 10:00:25;;;;;;;;;;;;;;;26.95;60.70;95614.28;5114307;28;980;-49
2022/06/04 10:02:55;;;;;;;;;;;;;;;27.10;57.58;95612.84;5114205;28;1040;-47
2022/06/04 10:05:23;;;;;;;;;;;;;;;26.96;59.04;95596.75;5110477;28;1164;-48
2022/06/04 10:07:50;;;;;;;;;;;;;;;26.87;60.54;95590.88;5093829;28;960;-47
2022/06/04 10:10:22;;;;;;;;;;;;;;;26.93;60.50;95591.78;5093940;28;1032;-47
2022/06/04 10:15:41;;;;;;;;;;;;;;;26.93;61.43;95586.28;5093500;28;1029;-48
2022/06/04 10:18:22;;;;;;;;;;;;;;;26.82;58.95;95588.03;5093671;28;976;-47
2022/06/04 10:20:52;;;;;;;;;;;;;;;26.82;60.55;95585.31;5093684;28;1987;-49
2022/06/04 10:23:18;;;;;;;;;;;;;;;26.86;59.09;95575.50;5093872;28;1071;-49
2022/06/04 10:26:02;;;;;;;;;;;;;;;26.89;58.81;95579.66;5093210;28;968;-50
2022/06/04 10:28:41;;;;;;;;;;;;;;;26.85;58.65;95579.31;5093571;28;953;-51
2022/06/04 10:31:13;;;;;;;;;;;;;;;26.85;59.65;95573.00;5093422;28;1083;-50
2022/06/04 10:33:58;;;;;;;;;;;;;;;26.96;59.04;95577.56;5092496;28;980;-51
2022/06/04 10:36:27;;;;;;;;;;;;;;;27.10;59.52;95569.75;5093296;28;1071;-51
2022/06/04 10:39:16;;;;;;;;;;;;;;;27.18;58.84;95563.81;5093499;28;1043;-50
2022/06/04 10:41:50;;;;;;;;;;;;;;;27.35;58.88;95555.53;5085041;28;1910;-50
2022/06/04 10:44:19;;;;;;;;;;;;;;;27.62;55.93;95549.22;5093501;28;1169;-51
2022/06/04 10:47:03;;;;;;;;;;;;;;;27.96;56.28;95540.78;5093046;28;1948;-50
2022/06/04 10:49:29;;;;;;;;;;;;;;;28.26;55.93;95540.22;5093761;28;968;-51
2022/06/04 10:52:14;;;;;;;;;;;;;;;28.68;54.76;95533.09;5093249;28;975;-51
2022/06/04 10:54:47;;;;;;;;;;;;;;;28.68;53.79;95535.84;5093168;28;948;-50
2022/06/04 10:57:19;;;;;;;;;;;;;;;28.76;54.74;95532.59;5094702;28;1024;-51
2022/06/04 10:59:54;;;;;;;;;;;;;;;29.06;55.24;95522.81;5097340;28;1068;-51
2022/06/04 11:02:20;;;;;;;;;;;;;;;29.15;54.59;95524.00;5097225;28;1909;-51
2022/06/04 11:04:49;;;;;;;;;;;;;;;28.70;49.33;95522.66;5097457;28;969;-51
2022/06/04 11:07:34;;;;;;;;;;;;;;;28.56;49.44;95514.88;5117261;28;1212;-50
2022/06/04 11:10:03;;;;;;;;;;;;;;;28.29;50.72;95512.19;5117561;28;1003;-50
2022/06/04 11:12:35;;;;;;;;;;;;;;;28.19;49.54;95512.97;5117885;28;1019;-51
2022/06/04 11:15:09;;;;;;;;;;;;;;;28.31;48.83;95499.00;5117621;28;1024;-51
2022/06/04 11:17:46;;;;;;;;;;;;;;;28.46;49.12;95502.94;5117590;28;944;-51
2022/06/04 11:20:12;;;;;;;;;;;;;;;28.43;48.28;95502.38;5117446;27;1072;-50
2022/06/04 11:22:39;;;;;;;;;;;;;;;28.52;49.40;95504.69;5117214;28;1985;-51
2022/06/04 11:25:19;;;;;;;;;;;;;;;28.55;50.50;95499.47;5117262;28;999;-51
2022/06/04 11:27:48;;;;;;;;;;;;;;;28.43;50.54;95496.88;5117603;28;1051;-51
2022/06/04 11:30:21;;;;;;;;;;;;;;;28.44;52.19;95500.47;5117443;28;961;-50
2022/06/04 11:32:57;;;;;;;;;;;;;;;28.40;52.36;95500.19;5117151;28;996;-51
2022/06/04 11:35:42;;;;;;;;;;;;;;;28.38;51.08;95501.53;5117292;28;985;-50
2022/06/04 11:38:26;;;;;;;;;;;;;;;28.31;51.70;95492.69;5117426;28;1010;-51
2022/06/04 11:40:52;;;;;;;;;;;;;;;28.15;51.37;95489.00;5116777;28;1906;-51
2022/06/04 11:43:45;;;;;;;;;;;;;;;28.15;52.08;95484.34;5117144;28;961;-51
2022/06/04 11:46:25;;;;;;;;;;;;;;;28.24;51.91;95487.41;5116991;28;1007;-50
2022/06/04 11:48:54;;;;;;;;;;;;;;;28.29;51.44;95489.38;5117344;28;999;-50
2022/06/04 11:51:23;;;;;;;;;;;;;;;28.28;51.46;95488.53;5116996;28;1064;-51
2022/06/04 11:54:01;;;;;;;;;;;;;;;28.18;51.17;95488.47;5116901;28;1044;-50
2022/06/04 11:56:27;;;;;;;;;;;;;;;28.21;53.32;95488.78;5116585;28;1061;-50
2022/06/04 11:59:11;;;;;;;;;;;;;;;28.30;52.06;95493.78;5117048;28;1051;-50
2022/06/04 12:01:43;;;;;;;;;;;;;;;28.40;51.38;95494.69;5116568;28;1901;-50
2022/06/04 12:04:15;;;;;;;;;;;;;;;28.29;51.50;95501.22;5117047;28;1036;-60
2022/06/04 12:06:50;;;;;;;;;;;;;;;28.33;51.07;95496.00;5101577;28;1160;-50
2022/06/04 12:09:30;;;;;;;;;;;;;;;28.34;50.12;95493.00;5095355;28;1052;-51
2022/06/04 12:12:11;;;;;;;;;;;;;;;28.41;49.50;95487.25;5095977;28;1044;-51
2022/06/04 12:14:46;;;;;;;;;;;;;;;28.52;50.46;95486.25;5096087;28;1036;-48
2022/06/04 12:17:15;;;;;;;;;;;;;;;28.51;48.04;95490.06;5095784;28;980;-49
2022/06/04 12:25:41;;;;;;;;;;;;;;;28.98;48.94;95474.63;5095581;28;1135;-49
2022/06/04 12:28:27;;;;;;;;;;;;;;;29.05;48.80;95471.63;5096055;28;1044;-51
2022/06/04 12:30:53;;;;;;;;;;;;;;;28.89;48.40;95465.22;5095681;28;1035;-50
2022/06/04 12:33:22;;;;;;;;;;;;;;;28.78;47.62;95462.44;5095666;28;1088;-50
2022/06/04 12:35:59;;;;;;;;;;;;;;;28.63;49.40;95465.13;5095971;28;1012;-50
2022/06/04 12:38:25;;;;;;;;;;;;;;;28.68;51.16;95465.13;5095849;28;1003;-50
2022/06/04 12:41:02;;;;;;;;;;;;;;;28.68;47.47;95458.81;5096010;28;1910;-51
2022/06/04 12:43:35;;;;;;;;;;;;;;;28.51;47.71;95457.03;5095637;28;977;-50
2022/06/04 12:46:10;;;;;;;;;;;;;;;28.41;46.54;95451.50;5095294;28;1279;-50
2022/06/04 12:48:36;;;;;;;;;;;;;;;28.54;47.44;95447.47;5095656;28;953;-50
2022/06/04 12:51:14;;;;;;;;;;;;;;;28.53;44.39;95452.16;5095320;28;964;-50
2022/06/04 12:54:06;;;;;;;;;;;;;;;28.55;46.54;95438.97;5094990;28;973;-50
2022/06/04 12:56:34;;;;;;;;;;;;;;;28.67;45.93;95436.00;5071337;28;1218;-50
2022/06/04 12:59:01;;;;;;;;;;;;;;;28.79;47.30;95433.00;5095244;28;1066;-50
2022/06/04 13:01:30;;;;;;;;;;;;;;;28.88;43.99;95434.13;5094798;28;1999;-50
2022/06/04 13:04:12;;;;;;;;;;;;;;;28.94;45.83;95435.81;5095413;28;964;-50
2022/06/04 13:06:44;;;;;;;;;;;;;;;28.95;44.66;95426.47;5079388;28;1086;-50
2022/06/04 13:09:12;;;;;;;;;;;;;;;28.92;44.15;95426.19;5073398;28;1083;-50
2022/06/04 13:11:47;;;;;;;;;;;;;;;28.88;39.44;95423.13;5074538;28;1841;-50
2022/06/04 13:14:34;;;;;;;;;;;;;;;28.95;41.57;95425.63;5074693;28;1880;-50
2022/06/04 13:17:11;;;;;;;;;;;;;;;28.97;41.79;95432.53;5074394;28;1029;-51
2022/06/04 13:19:52;;;;;;;;;;;;;;;28.76;38.01;95428.88;5074504;28;1977;-51
2022/06/04 13:22:37;;;;;;;;;;;;;;;28.66;40.68;95434.31;5073380;28;1914;-51
2022/06/04 13:25:06;;;;;;;;;;;;;;;28.62;38.07;95423.03;5074351;28;1033;-51
2022/06/04 13:27:51;;;;;;;;;;;;;;;28.60;40.40;95407.91;5074231;28;1116;-50
2022/06/04 13:30:18;;;;;;;;;;;;;;;28.60;39.38;95400.47;5074327;28;1015;-50
2022/06/04 13:32:44;;;;;;;;;;;;;;;28.61;38.13;95388.38;5074265;28;1033;-50